Content
SEND FEEDBACK

Daily
Averages
Monthly
Summary
Spain

MADRID, SPAIN


Home > Europe > Spain
Elevation: 581 meters     Latitude: 40 27N     Longitude: 003 33W

WEATHER
 
SELECT A DAY
Number of Records: 302,923;   Date Range: 7/1/96 - 8/30/14
 
SHARE

PRINT THIS DATA

[ ← Previous Day ]
WEATHER ALMANAC - 14 FEBRUARY, 2013
[ Next Day → ]
[ °F ]   °C
Weather ElementAverageHighLow
Temperature7.6 °C15 °C (4:00 pm)0 °C (7:00 am)
Dewpoint2.5 °C5 °C (4:30 pm)-1.1 °C (7:00 am)
Humidity73 %100 % (5:00 am)40 % (7:00 pm)
Barometer1023 hPa1027.4 hPa (7:00 am)1021 hPa (4:00 pm)
Wind Speed4.7 km/h9.3 km/h (4:30 pm)
Weather ElementAverage
Visibility22.5 km
Wind DirectionSSE (142.8 °)

Weather ElementTotal
Precipitation---
Heating Degree Days10.8 (Base 18.3)
Averaged from 50 records on 14 February, 2013
WEATHER CONDITIONS BREAKOUT
WIND DIRECTION BREAKOUT
WEATHER BY HOUR - 14 FEBRUARY, 2013
[ °F ]   °C
Local TimeTemperatureDewpointHumidityBarometerVisibilityWind DirectionWind SpeedGust SpeedPrecipitationEventsConditions
1:00 AM6.1 °C1.7 °C66 %1026.1 hPa30.6 kmSSE (160°)5.6 km/h
1:00 AM7 °C3 °C76 %1024 hPaESE (110°)5.6 km/hClear
1:30 AM5 °C2 °C81 %1024 hPaCalmClear
2:00 AM5 °C3 °C87 %1024 hPaVariable3.7 km/hClear
2:30 AM5 °C3 °C87 %1024 hPaSouth (170°)5.6 km/hClear
3:00 AM4 °C2 °C87 %1024 hPaVariable1.9 km/hClear
3:30 AM3 °C2 °C93 %1024 hPaNorth (10°)5.6 km/hClear
4:00 AM2 °C1 °C93 %1024 hPaNNW (340°)7.4 km/hClear
4:30 AM3 °C2 °C93 %1024 hPaNNW (340°)5.6 km/hClear
5:00 AM2 °C2 °C100 %1024 hPaNorth (10°)5.6 km/hClear
5:30 AM1 °C1 °C100 %1023 hPaVariable3.7 km/hClear
6:00 AM1 °C1 °C100 %1024 hPaNorth (360°)3.7 km/hClear
6:30 AM1 °C1 °C100 %1024 hPaNorth (360°)5.6 km/hClear
7:00 AM0 °C-1.1 °C91 %1027.4 hPa9.7 kmNorth7.4 km/h
7:00 AM1 °C1 °C100 %1024 hPaNorth (360°)5.6 km/hClear
7:30 AM0 °C0 °C100 %1024 hPaNorth (360°)5.6 km/hClear
8:00 AM0 °C0 °C100 %1024 hPaNorth (360°)3.7 km/hClear
8:30 AM1 °C1 °C100 %1024 hPaCalmClear
9:00 AM2 °C2 °C100 %1024 hPaSSE (160°)1.9 km/hClear
9:30 AM2 °C2 °C100 %1025.1 hPaNW (320°)1.9 km/hClear
10:00 AM4 °C3 °C93 %1024 hPaVariable1.9 km/hClear
10:30 AM5 °C3 °C87 %1024 hPaVariable3.7 km/hClear
11:00 AM7 °C3 °C76 %1024 hPaNNW (330°)1.9 km/hClear
11:30 AM9 °C3 °C66 %1024 hPaVariable1.9 km/hClear
12:00 PM10 °C3 °C62 %1025.1 hPaVariable1.9 km/hClear
12:30 PM11 °C3 °C58 %1024 hPaENE (60°)1.9 km/hClear
1:00 PM12.2 °C3.3 °C43 %1024 hPa19.3 kmSouth (190°)5.6 km/h
1:00 PM12 °C3 °C54 %1024 hPaSouth (170°)5.6 km/hClear
1:30 PM13 °C3 °C51 %1023 hPaSW (220°)3.7 km/hClear
2:00 PM13 °C4 °C54 %1023 hPaSouth (170°)3.7 km/hClear
2:30 PM14 °C3 °C48 %1022 hPaVariable5.6 km/hClear
3:00 PM14 °C3 °C48 %1022 hPaSSE (160°)3.7 km/hClear
3:30 PM14 °C3 °C48 %1022 hPaSSE (150°)3.7 km/hClear
4:00 PM15 °C4 °C48 %1021 hPaSouth (180°)5.6 km/hClear
4:30 PM15 °C5 °C51 %1021 hPaSE (140°)9.3 km/hClear
5:00 PM15 °C3 °C45 %1021 hPaSSE (160°)7.4 km/hClear
5:30 PM15 °C3 °C45 %1021 hPaSSE (160°)7.4 km/hClear
6:00 PM14 °C5 °C55 %1021 hPaSSE (160°)7.4 km/hClear
6:30 PM13 °C4 °C54 %1021 hPaSSE (150°)7.4 km/hClear
7:00 PM12.2 °C2.8 °C40 %1021.3 hPa30.6 kmSE (140°)7.4 km/h
7:00 PM12 °C3 °C54 %1021 hPaSE (130°)5.6 km/hClear
7:30 PM12 °C3 °C54 %1021 hPaVariable3.7 km/hClear
8:00 PM11 °C3 °C58 %1021 hPaVariable3.7 km/hClear
8:30 PM11 °C3 °C58 %1022 hPaVariable3.7 km/hClear
9:00 PM9 °C3 °C66 %1021 hPaVariable3.7 km/hClear
9:30 PM8 °C3 °C71 %1022 hPaNorth (10°)1.9 km/hClear
10:00 PM7 °C3 °C76 %1022 hPaNorth (10°)7.4 km/hClear
10:30 PM6 °C3 °C81 %1022 hPaNNW (340°)7.4 km/hClear
11:00 PM6 °C2 °C76 %1022 hPaNNW (330°)7.4 km/hClear
11:30 PM6 °C2 °C76 %1022 hPaNorth (360°)7.4 km/hClear
Hourly data recorded from LETO, located 0 kilometers away from Madrid, Spain







STORIES FROM OUR PARTNERS